sensor_id;sensor_type;location;lat;lon;timestamp;P1;durP1;ratioP1;P2;durP2;ratioP2
71679;SDS011;59512;42.662;23.254;2022-12-22T00:00:42;39.03;;;20.17;;
71679;SDS011;59512;42.662;23.254;2022-12-22T00:03:28;38.58;;;19.80;;
71679;SDS011;59512;42.662;23.254;2022-12-22T00:06:12;32.63;;;18.10;;
71679;SDS011;59512;42.662;23.254;2022-12-22T00:08:56;34.95;;;17.95;;
71679;SDS011;59512;42.662;23.254;2022-12-22T00:11:40;32.37;;;16.87;;
71679;SDS011;59512;42.662;23.254;2022-12-22T00:14:24;30.52;;;16.38;;
71679;SDS011;59512;42.662;23.254;2022-12-22T00:17:14;37.80;;;18.67;;
71679;SDS011;59512;42.662;23.254;2022-12-22T00:20:09;39.90;;;19.90;;
71679;SDS011;59512;42.662;23.254;2022-12-22T00:22:55;35.30;;;17.80;;
71679;SDS011;59512;42.662;23.254;2022-12-22T00:25:39;36.17;;;19.83;;
71679;SDS011;59512;42.662;23.254;2022-12-22T00:28:23;37.40;;;18.52;;
71679;SDS011;59512;42.662;23.254;2022-12-22T00:31:07;38.28;;;19.05;;
71679;SDS011;59512;42.662;23.254;2022-12-22T00:33:51;34.63;;;17.92;;
71679;SDS011;59512;42.662;23.254;2022-12-22T00:36:35;30.00;;;15.50;;
71679;SDS011;59512;42.662;23.254;2022-12-22T00:39:19;30.37;;;17.03;;
71679;SDS011;59512;42.662;23.254;2022-12-22T00:42:03;30.75;;;16.30;;
71679;SDS011;59512;42.662;23.254;2022-12-22T00:44:47;31.77;;;13.98;;
71679;SDS011;59512;42.662;23.254;2022-12-22T00:47:31;31.50;;;16.02;;
71679;SDS011;59512;42.662;23.254;2022-12-22T00:50:15;32.00;;;16.58;;
71679;SDS011;59512;42.662;23.254;2022-12-22T00:52:59;42.93;;;22.73;;
71679;SDS011;59512;42.662;23.254;2022-12-22T00:55:43;29.52;;;15.52;;
71679;SDS011;59512;42.662;23.254;2022-12-22T00:58:27;24.77;;;14.00;;
71679;SDS011;59512;42.662;23.254;2022-12-22T01:01:11;24.83;;;13.05;;
71679;SDS011;59512;42.662;23.254;2022-12-22T01:03:55;21.35;;;12.27;;
71679;SDS011;59512;42.662;23.254;2022-12-22T01:06:39;23.83;;;12.73;;
71679;SDS011;59512;42.662;23.254;2022-12-22T01:09:23;24.48;;;13.13;;
71679;SDS011;59512;42.662;23.254;2022-12-22T01:12:16;25.90;;;13.57;;
71679;SDS011;59512;42.662;23.254;2022-12-22T01:15:12;26.23;;;13.93;;
71679;SDS011;59512;42.662;23.254;2022-12-22T01:18:01;23.77;;;12.57;;
71679;SDS011;59512;42.662;23.254;2022-12-22T01:20:46;26.07;;;14.20;;
71679;SDS011;59512;42.662;23.254;2022-12-22T01:23:29;23.50;;;13.07;;
71679;SDS011;59512;42.662;23.254;2022-12-22T01:26:13;22.35;;;14.00;;
71679;SDS011;59512;42.662;23.254;2022-12-22T01:28:57;27.65;;;13.93;;
71679;SDS011;59512;42.662;23.254;2022-12-22T01:31:41;27.40;;;14.40;;
71679;SDS011;59512;42.662;23.254;2022-12-22T01:34:25;27.07;;;15.00;;
71679;SDS011;59512;42.662;23.254;2022-12-22T01:37:09;29.20;;;16.30;;
71679;SDS011;59512;42.662;23.254;2022-12-22T01:39:53;31.23;;;16.73;;
71679;SDS011;59512;42.662;23.254;2022-12-22T01:42:37;26.40;;;15.00;;
71679;SDS011;59512;42.662;23.254;2022-12-22T01:45:22;25.83;;;13.68;;
71679;SDS011;59512;42.662;23.254;2022-12-22T01:48:12;24.90;;;13.33;;
71679;SDS011;59512;42.662;23.254;2022-12-22T01:50:58;29.48;;;14.55;;
71679;SDS011;59512;42.662;23.254;2022-12-22T01:53:44;30.77;;;15.20;;
71679;SDS011;59512;42.662;23.254;2022-12-22T01:56:28;31.08;;;14.13;;
71679;SDS011;59512;42.662;23.254;2022-12-22T01:59:12;27.98;;;15.65;;
71679;SDS011;59512;42.662;23.254;2022-12-22T02:01:56;26.93;;;14.50;;
71679;SDS011;59512;42.662;23.254;2022-12-22T02:04:41;30.58;;;15.93;;
71679;SDS011;59512;42.662;23.254;2022-12-22T02:10:38;31.38;;;16.27;;
71679;SDS011;59512;42.662;23.254;2022-12-22T02:16:33;38.13;;;19.23;;
71679;SDS011;59512;42.662;23.254;2022-12-22T02:22:29;31.73;;;15.68;;
71679;SDS011;59512;42.662;23.254;2022-12-22T02:25:30;33.95;;;18.00;;
71679;SDS011;59512;42.662;23.254;2022-12-22T02:28:38;36.30;;;19.33;;
71679;SDS011;59512;42.662;23.254;2022-12-22T02:31:23;40.40;;;18.90;;
71679;SDS011;59512;42.662;23.254;2022-12-22T02:34:13;31.17;;;16.33;;
71679;SDS011;59512;42.662;23.254;2022-12-22T02:37:16;29.27;;;15.35;;
71679;SDS011;59512;42.662;23.254;2022-12-22T02:40:10;31.27;;;16.23;;
71679;SDS011;59512;42.662;23.254;2022-12-22T02:43:05;30.95;;;15.43;;
71679;SDS011;59512;42.662;23.254;2022-12-22T02:49:16;42.10;;;20.45;;
71679;SDS011;59512;42.662;23.254;2022-12-22T02:52:08;36.03;;;18.58;;
71679;SDS011;59512;42.662;23.254;2022-12-22T02:54:55;33.33;;;19.08;;
71679;SDS011;59512;42.662;23.254;2022-12-22T02:57:39;37.97;;;18.30;;
71679;SDS011;59512;42.662;23.254;2022-12-22T03:00:23;34.77;;;18.13;;
71679;SDS011;59512;42.662;23.254;2022-12-22T03:03:07;35.70;;;19.10;;
71679;SDS011;59512;42.662;23.254;2022-12-22T03:05:51;33.97;;;17.63;;
71679;SDS011;59512;42.662;23.254;2022-12-22T03:08:35;35.58;;;19.38;;
71679;SDS011;59512;42.662;23.254;2022-12-22T03:11:19;31.40;;;17.10;;
71679;SDS011;59512;42.662;23.254;2022-12-22T03:14:02;42.10;;;21.57;;
71679;SDS011;59512;42.662;23.254;2022-12-22T03:16:46;87.32;;;43.63;;
71679;SDS011;59512;42.662;23.254;2022-12-22T03:19:30;47.22;;;24.52;;
71679;SDS011;59512;42.662;23.254;2022-12-22T03:22:14;54.92;;;28.48;;
71679;SDS011;59512;42.662;23.254;2022-12-22T03:24:58;53.03;;;26.25;;
71679;SDS011;59512;42.662;23.254;2022-12-22T03:27:42;47.10;;;23.47;;
71679;SDS011;59512;42.662;23.254;2022-12-22T03:30:07;49.47;;;25.40;;
71679;SDS011;59512;42.662;23.254;2022-12-22T03:32:33;43.17;;;23.73;;
71679;SDS011;59512;42.662;23.254;2022-12-22T03:34:58;46.80;;;24.37;;
71679;SDS011;59512;42.662;23.254;2022-12-22T03:37:24;50.93;;;25.77;;
71679;SDS011;59512;42.662;23.254;2022-12-22T03:39:49;43.92;;;23.33;;
71679;SDS011;59512;42.662;23.254;2022-12-22T03:42:14;40.53;;;23.25;;
71679;SDS011;59512;42.662;23.254;2022-12-22T03:44:58;38.27;;;20.47;;
71679;SDS011;59512;42.662;23.254;2022-12-22T03:47:42;41.78;;;19.98;;
71679;SDS011;59512;42.662;23.254;2022-12-22T03:50:07;40.23;;;22.80;;
71679;SDS011;59512;42.662;23.254;2022-12-22T03:52:33;47.33;;;25.25;;
71679;SDS011;59512;42.662;23.254;2022-12-22T03:54:58;41.20;;;21.40;;
71679;SDS011;59512;42.662;23.254;2022-12-22T03:57:24;48.57;;;22.47;;
71679;SDS011;59512;42.662;23.254;2022-12-22T03:59:49;45.87;;;24.87;;
71679;SDS011;59512;42.662;23.254;2022-12-22T04:02:14;47.93;;;24.60;;
71679;SDS011;59512;42.662;23.254;2022-12-22T04:04:40;39.10;;;22.10;;
71679;SDS011;59512;42.662;23.254;2022-12-22T04:07:05;43.20;;;23.23;;
71679;SDS011;59512;42.662;23.254;2022-12-22T04:09:31;38.95;;;22.35;;
71679;SDS011;59512;42.662;23.254;2022-12-22T04:11:57;38.85;;;22.02;;
71679;SDS011;59512;42.662;23.254;2022-12-22T04:14:40;42.28;;;22.17;;
71679;SDS011;59512;42.662;23.254;2022-12-22T04:17:06;35.43;;;19.53;;
71679;SDS011;59512;42.662;23.254;2022-12-22T04:19:31;38.17;;;21.05;;
71679;SDS011;59512;42.662;23.254;2022-12-22T04:21:57;38.63;;;22.45;;
71679;SDS011;59512;42.662;23.254;2022-12-22T04:24:23;37.80;;;20.70;;
71679;SDS011;59512;42.662;23.254;2022-12-22T04:26:48;39.47;;;20.07;;
71679;SDS011;59512;42.662;23.254;2022-12-22T04:29:14;69.05;;;32.97;;
71679;SDS011;59512;42.662;23.254;2022-12-22T04:31:40;54.23;;;25.73;;
71679;SDS011;59512;42.662;23.254;2022-12-22T04:34:05;43.00;;;21.80;;
71679;SDS011;59512;42.662;23.254;2022-12-22T04:36:30;40.13;;;19.60;;
71679;SDS011;59512;42.662;23.254;2022-12-22T04:38:56;35.23;;;17.60;;
71679;SDS011;59512;42.662;23.254;2022-12-22T04:41:21;38.03;;;20.30;;
71679;SDS011;59512;42.662;23.254;2022-12-22T04:43:47;37.13;;;19.57;;
71679;SDS011;59512;42.662;23.254;2022-12-22T04:46:12;34.03;;;19.77;;
71679;SDS011;59512;42.662;23.254;2022-12-22T04:48:37;43.63;;;21.93;;
71679;SDS011;59512;42.662;23.254;2022-12-22T04:51:03;69.72;;;32.17;;
71679;SDS011;59512;42.662;23.254;2022-12-22T04:53:29;65.43;;;28.27;;
71679;SDS011;59512;42.662;23.254;2022-12-22T04:56:01;56.03;;;25.50;;
71679;SDS011;59512;42.662;23.254;2022-12-22T04:58:28;44.55;;;22.77;;
71679;SDS011;59512;42.662;23.254;2022-12-22T05:00:54;38.67;;;20.13;;
71679;SDS011;59512;42.662;23.254;2022-12-22T05:03:19;44.00;;;26.17;;
71679;SDS011;59512;42.662;23.254;2022-12-22T05:05:45;36.33;;;20.25;;
71679;SDS011;59512;42.662;23.254;2022-12-22T05:08:10;39.93;;;18.07;;
71679;SDS011;59512;42.662;23.254;2022-12-22T05:10:35;35.43;;;17.70;;
71679;SDS011;59512;42.662;23.254;2022-12-22T05:13:01;34.03;;;19.03;;
71679;SDS011;59512;42.662;23.254;2022-12-22T05:15:27;35.90;;;19.60;;
71679;SDS011;59512;42.662;23.254;2022-12-22T05:17:56;39.10;;;19.13;;
71679;SDS011;59512;42.662;23.254;2022-12-22T05:20:23;39.63;;;19.85;;
71679;SDS011;59512;42.662;23.254;2022-12-22T05:22:48;38.50;;;21.37;;
71679;SDS011;59512;42.662;23.254;2022-12-22T05:25:14;43.57;;;22.43;;
71679;SDS011;59512;42.662;23.254;2022-12-22T05:27:41;45.67;;;23.75;;
71679;SDS011;59512;42.662;23.254;2022-12-22T05:30:07;42.90;;;22.05;;
71679;SDS011;59512;42.662;23.254;2022-12-22T05:32:33;40.53;;;21.83;;
71679;SDS011;59512;42.662;23.254;2022-12-22T05:34:59;45.63;;;24.10;;
71679;SDS011;59512;42.662;23.254;2022-12-22T05:37:24;44.35;;;23.15;;
71679;SDS011;59512;42.662;23.254;2022-12-22T05:39:49;40.10;;;21.03;;
71679;SDS011;59512;42.662;23.254;2022-12-22T05:42:15;44.27;;;25.63;;
71679;SDS011;59512;42.662;23.254;2022-12-22T05:45:00;48.03;;;26.13;;
71679;SDS011;59512;42.662;23.254;2022-12-22T05:47:30;50.13;;;24.37;;
71679;SDS011;59512;42.662;23.254;2022-12-22T05:49:56;46.50;;;25.63;;
71679;SDS011;59512;42.662;23.254;2022-12-22T05:52:21;43.63;;;22.57;;
71679;SDS011;59512;42.662;23.254;2022-12-22T05:54:47;44.50;;;23.73;;
71679;SDS011;59512;42.662;23.254;2022-12-22T05:57:12;42.77;;;22.90;;
71679;SDS011;59512;42.662;23.254;2022-12-22T05:59:37;51.90;;;24.17;;
71679;SDS011;59512;42.662;23.254;2022-12-22T06:02:03;46.53;;;24.38;;
71679;SDS011;59512;42.662;23.254;2022-12-22T06:04:28;45.30;;;24.23;;
71679;SDS011;59512;42.662;23.254;2022-12-22T06:06:53;50.63;;;27.10;;
71679;SDS011;59512;42.662;23.254;2022-12-22T06:09:19;54.33;;;27.07;;
71679;SDS011;59512;42.662;23.254;2022-12-22T06:11:44;55.20;;;28.93;;
71679;SDS011;59512;42.662;23.254;2022-12-22T06:14:10;50.63;;;26.53;;
71679;SDS011;59512;42.662;23.254;2022-12-22T06:16:35;50.80;;;27.35;;
71679;SDS011;59512;42.662;23.254;2022-12-22T06:19:00;54.38;;;25.77;;
71679;SDS011;59512;42.662;23.254;2022-12-22T06:21:26;49.93;;;26.00;;
71679;SDS011;59512;42.662;23.254;2022-12-22T06:23:51;55.03;;;30.17;;
71679;SDS011;59512;42.662;23.254;2022-12-22T06:26:19;66.00;;;29.55;;
71679;SDS011;59512;42.662;23.254;2022-12-22T06:28:44;56.40;;;29.83;;
71679;SDS011;59512;42.662;23.254;2022-12-22T06:31:10;60.95;;;34.15;;
71679;SDS011;59512;42.662;23.254;2022-12-22T06:33:35;66.40;;;35.03;;
71679;SDS011;59512;42.662;23.254;2022-12-22T06:36:04;55.27;;;30.87;;
71679;SDS011;59512;42.662;23.254;2022-12-22T06:38:32;60.40;;;33.40;;
71679;SDS011;59512;42.662;23.254;2022-12-22T06:40:58;65.63;;;33.83;;
71679;SDS011;59512;42.662;23.254;2022-12-22T06:43:24;61.37;;;32.17;;
71679;SDS011;59512;42.662;23.254;2022-12-22T06:45:50;64.50;;;37.67;;
71679;SDS011;59512;42.662;23.254;2022-12-22T06:48:16;62.42;;;35.95;;
71679;SDS011;59512;42.662;23.254;2022-12-22T06:50:41;71.83;;;37.90;;
71679;SDS011;59512;42.662;23.254;2022-12-22T06:53:06;334.40;;;173.63;;
71679;SDS011;59512;42.662;23.254;2022-12-22T06:55:32;144.50;;;73.57;;
71679;SDS011;59512;42.662;23.254;2022-12-22T06:57:58;87.97;;;46.20;;
71679;SDS011;59512;42.662;23.254;2022-12-22T07:00:23;69.90;;;39.50;;
71679;SDS011;59512;42.662;23.254;2022-12-22T07:02:49;79.03;;;46.70;;
71679;SDS011;59512;42.662;23.254;2022-12-22T07:05:14;86.18;;;52.05;;
71679;SDS011;59512;42.662;23.254;2022-12-22T07:07:40;85.80;;;46.70;;
71679;SDS011;59512;42.662;23.254;2022-12-22T07:10:05;71.97;;;40.87;;
71679;SDS011;59512;42.662;23.254;2022-12-22T07:12:31;76.57;;;40.47;;
71679;SDS011;59512;42.662;23.254;2022-12-22T07:14:57;76.97;;;40.53;;
71679;SDS011;59512;42.662;23.254;2022-12-22T07:17:22;69.27;;;38.70;;
71679;SDS011;59512;42.662;23.254;2022-12-22T07:19:47;79.63;;;44.25;;
71679;SDS011;59512;42.662;23.254;2022-12-22T07:22:13;83.87;;;44.83;;
71679;SDS011;59512;42.662;23.254;2022-12-22T07:24:38;77.33;;;44.87;;
71679;SDS011;59512;42.662;23.254;2022-12-22T07:27:04;87.87;;;48.17;;
71679;SDS011;59512;42.662;23.254;2022-12-22T07:29:29;83.83;;;49.57;;
71679;SDS011;59512;42.662;23.254;2022-12-22T07:31:54;91.93;;;52.77;;
71679;SDS011;59512;42.662;23.254;2022-12-22T07:34:20;93.57;;;51.10;;
71679;SDS011;59512;42.662;23.254;2022-12-22T07:36:45;94.22;;;53.78;;
71679;SDS011;59512;42.662;23.254;2022-12-22T07:39:11;89.30;;;51.07;;
71679;SDS011;59512;42.662;23.254;2022-12-22T07:41:36;108.47;;;57.60;;
71679;SDS011;59512;42.662;23.254;2022-12-22T07:44:20;103.43;;;54.08;;
71679;SDS011;59512;42.662;23.254;2022-12-22T07:46:46;93.00;;;52.93;;
71679;SDS011;59512;42.662;23.254;2022-12-22T07:49:11;91.57;;;53.77;;
71679;SDS011;59512;42.662;23.254;2022-12-22T07:51:56;97.22;;;53.53;;
71679;SDS011;59512;42.662;23.254;2022-12-22T07:54:21;84.32;;;49.58;;
71679;SDS011;59512;42.662;23.254;2022-12-22T07:56:47;78.00;;;44.93;;
71679;SDS011;59512;42.662;23.254;2022-12-22T07:59:12;81.33;;;43.20;;
71679;SDS011;59512;42.662;23.254;2022-12-22T08:01:38;81.93;;;43.20;;
71679;SDS011;59512;42.662;23.254;2022-12-22T08:04:05;93.55;;;51.80;;
71679;SDS011;59512;42.662;23.254;2022-12-22T08:06:31;90.07;;;53.15;;
71679;SDS011;59512;42.662;23.254;2022-12-22T08:08:58;94.67;;;53.80;;
71679;SDS011;59512;42.662;23.254;2022-12-22T08:11:23;105.60;;;54.88;;
71679;SDS011;59512;42.662;23.254;2022-12-22T08:13:49;91.37;;;50.40;;
71679;SDS011;59512;42.662;23.254;2022-12-22T08:16:14;86.47;;;46.93;;
71679;SDS011;59512;42.662;23.254;2022-12-22T08:18:41;85.82;;;46.13;;
71679;SDS011;59512;42.662;23.254;2022-12-22T08:21:07;82.63;;;45.75;;
71679;SDS011;59512;42.662;23.254;2022-12-22T08:23:33;79.27;;;43.77;;
71679;SDS011;59512;42.662;23.254;2022-12-22T08:26:00;80.97;;;43.22;;
71679;SDS011;59512;42.662;23.254;2022-12-22T08:28:33;78.70;;;44.58;;
71679;SDS011;59512;42.662;23.254;2022-12-22T08:31:08;76.32;;;41.75;;
71679;SDS011;59512;42.662;23.254;2022-12-22T08:33:34;67.03;;;38.33;;
71679;SDS011;59512;42.662;23.254;2022-12-22T08:36:00;74.20;;;43.03;;
71679;SDS011;59512;42.662;23.254;2022-12-22T08:38:26;81.50;;;45.70;;
71679;SDS011;59512;42.662;23.254;2022-12-22T08:40:51;81.22;;;46.67;;
71679;SDS011;59512;42.662;23.254;2022-12-22T08:43:17;84.53;;;49.20;;
71679;SDS011;59512;42.662;23.254;2022-12-22T08:45:42;85.27;;;46.57;;
71679;SDS011;59512;42.662;23.254;2022-12-22T08:48:11;83.97;;;46.92;;
71679;SDS011;59512;42.662;23.254;2022-12-22T08:50:36;92.43;;;47.33;;
71679;SDS011;59512;42.662;23.254;2022-12-22T08:53:05;87.72;;;49.17;;
71679;SDS011;59512;42.662;23.254;2022-12-22T08:55:32;86.30;;;46.37;;
71679;SDS011;59512;42.662;23.254;2022-12-22T08:57:57;84.15;;;46.55;;
71679;SDS011;59512;42.662;23.254;2022-12-22T09:00:22;102.38;;;59.78;;
71679;SDS011;59512;42.662;23.254;2022-12-22T09:02:48;82.63;;;49.83;;
71679;SDS011;59512;42.662;23.254;2022-12-22T09:05:13;87.63;;;50.23;;
71679;SDS011;59512;42.662;23.254;2022-12-22T09:07:39;90.95;;;50.65;;
71679;SDS011;59512;42.662;23.254;2022-12-22T09:10:05;87.90;;;49.37;;
71679;SDS011;59512;42.662;23.254;2022-12-22T09:12:32;83.15;;;48.33;;
71679;SDS011;59512;42.662;23.254;2022-12-22T09:14:57;88.87;;;51.53;;
71679;SDS011;59512;42.662;23.254;2022-12-22T09:17:23;92.57;;;51.23;;
71679;SDS011;59512;42.662;23.254;2022-12-22T09:19:48;87.07;;;50.73;;
71679;SDS011;59512;42.662;23.254;2022-12-22T09:22:13;96.68;;;53.17;;
71679;SDS011;59512;42.662;23.254;2022-12-22T09:24:39;97.60;;;53.80;;
71679;SDS011;59512;42.662;23.254;2022-12-22T09:27:04;97.17;;;55.53;;
71679;SDS011;59512;42.662;23.254;2022-12-22T09:29:30;107.65;;;60.13;;
71679;SDS011;59512;42.662;23.254;2022-12-22T09:31:56;114.97;;;68.00;;
71679;SDS011;59512;42.662;23.254;2022-12-22T09:34:21;114.93;;;63.80;;
71679;SDS011;59512;42.662;23.254;2022-12-22T09:36:47;111.07;;;62.75;;
71679;SDS011;59512;42.662;23.254;2022-12-22T09:39:12;112.90;;;63.60;;
71679;SDS011;59512;42.662;23.254;2022-12-22T09:41:54;120.90;;;66.18;;
71679;SDS011;59512;42.662;23.254;2022-12-22T09:44:28;115.80;;;66.37;;
71679;SDS011;59512;42.662;23.254;2022-12-22T09:46:57;126.50;;;72.38;;
71679;SDS011;59512;42.662;23.254;2022-12-22T09:49:24;121.38;;;67.97;;
71679;SDS011;59512;42.662;23.254;2022-12-22T09:51:51;115.85;;;67.53;;
71679;SDS011;59512;42.662;23.254;2022-12-22T09:54:18;117.32;;;65.97;;
71679;SDS011;59512;42.662;23.254;2022-12-22T09:56:44;114.18;;;67.72;;
71679;SDS011;59512;42.662;23.254;2022-12-22T09:59:14;116.87;;;68.93;;
71679;SDS011;59512;42.662;23.254;2022-12-22T10:09:44;102.37;;;60.47;;
71679;SDS011;59512;42.662;23.254;2022-12-22T10:12:12;104.53;;;60.67;;
71679;SDS011;59512;42.662;23.254;2022-12-22T10:14:40;101.17;;;58.27;;
71679;SDS011;59512;42.662;23.254;2022-12-22T10:19:47;114.30;;;61.97;;
71679;SDS011;59512;42.662;23.254;2022-12-22T10:22:30;113.70;;;65.20;;
71679;SDS011;59512;42.662;23.254;2022-12-22T10:25:01;118.88;;;64.47;;
71679;SDS011;59512;42.662;23.254;2022-12-22T10:27:30;102.00;;;59.73;;
71679;SDS011;59512;42.662;23.254;2022-12-22T10:35:34;107.07;;;59.17;;
71679;SDS011;59512;42.662;23.254;2022-12-22T10:38:13;100.38;;;59.63;;
71679;SDS011;59512;42.662;23.254;2022-12-22T10:40:51;99.40;;;60.40;;
71679;SDS011;59512;42.662;23.254;2022-12-22T10:43:33;103.40;;;60.33;;
71679;SDS011;59512;42.662;23.254;2022-12-22T10:46:00;104.75;;;61.67;;
71679;SDS011;59512;42.662;23.254;2022-12-22T10:48:35;108.18;;;62.65;;
71679;SDS011;59512;42.662;23.254;2022-12-22T10:51:03;108.90;;;63.57;;
71679;SDS011;59512;42.662;23.254;2022-12-22T10:53:40;110.38;;;62.28;;
71679;SDS011;59512;42.662;23.254;2022-12-22T10:56:17;112.00;;;61.67;;
71679;SDS011;59512;42.662;23.254;2022-12-22T10:58:46;106.90;;;63.10;;
71679;SDS011;59512;42.662;23.254;2022-12-22T11:01:13;111.75;;;65.93;;
71679;SDS011;59512;42.662;23.254;2022-12-22T11:03:47;108.70;;;64.07;;
71679;SDS011;59512;42.662;23.254;2022-12-22T11:06:12;111.85;;;64.05;;
71679;SDS011;59512;42.662;23.254;2022-12-22T11:08:38;106.97;;;64.68;;
71679;SDS011;59512;42.662;23.254;2022-12-22T11:11:09;103.60;;;62.77;;
71679;SDS011;59512;42.662;23.254;2022-12-22T11:13:58;99.43;;;59.50;;
71679;SDS011;59512;42.662;23.254;2022-12-22T11:19:11;93.43;;;57.30;;
71679;SDS011;59512;42.662;23.254;2022-12-22T11:22:06;102.13;;;59.17;;
71679;SDS011;59512;42.662;23.254;2022-12-22T11:27:35;108.50;;;65.75;;
71679;SDS011;59512;42.662;23.254;2022-12-22T11:36:05;105.35;;;63.05;;
71679;SDS011;59512;42.662;23.254;2022-12-22T11:38:49;107.75;;;63.55;;
71679;SDS011;59512;42.662;23.254;2022-12-22T11:44:26;98.90;;;59.47;;
71679;SDS011;59512;42.662;23.254;2022-12-22T11:47:15;110.25;;;61.67;;
71679;SDS011;59512;42.662;23.254;2022-12-22T11:53:04;102.22;;;60.97;;
71679;SDS011;59512;42.662;23.254;2022-12-22T11:55:40;103.90;;;61.90;;
71679;SDS011;59512;42.662;23.254;2022-12-22T11:58:16;107.20;;;63.13;;
71679;SDS011;59512;42.662;23.254;2022-12-22T12:00:57;106.15;;;61.83;;
71679;SDS011;59512;42.662;23.254;2022-12-22T12:11:34;106.60;;;60.90;;
71679;SDS011;59512;42.662;23.254;2022-12-22T12:30:57;107.15;;;64.50;;
71679;SDS011;59512;42.662;23.254;2022-12-22T12:38:47;108.30;;;64.37;;
71679;SDS011;59512;42.662;23.254;2022-12-22T12:44:49;101.20;;;62.50;;
71679;SDS011;59512;42.662;23.254;2022-12-22T12:55:49;110.95;;;63.38;;
71679;SDS011;59512;42.662;23.254;2022-12-22T12:58:00;110.63;;;63.72;;
71679;SDS011;59512;42.662;23.254;2022-12-22T13:03:07;106.75;;;63.05;;
71679;SDS011;59512;42.662;23.254;2022-12-22T13:10:47;106.85;;;64.68;;
71679;SDS011;59512;42.662;23.254;2022-12-22T13:18:53;119.65;;;70.15;;
71679;SDS011;59512;42.662;23.254;2022-12-22T13:21:29;108.47;;;64.43;;
71679;SDS011;59512;42.662;23.254;2022-12-22T13:24:12;86.47;;;48.17;;
71679;SDS011;59512;42.662;23.254;2022-12-22T13:26:43;67.63;;;41.25;;
71679;SDS011;59512;42.662;23.254;2022-12-22T13:32:00;71.55;;;38.65;;
71679;SDS011;59512;42.662;23.254;2022-12-22T13:34:46;66.75;;;38.83;;
71679;SDS011;59512;42.662;23.254;2022-12-22T13:37:20;63.07;;;36.50;;
71679;SDS011;59512;42.662;23.254;2022-12-22T13:45:36;87.43;;;47.83;;
71679;SDS011;59512;42.662;23.254;2022-12-22T13:48:04;86.88;;;45.58;;
71679;SDS011;59512;42.662;23.254;2022-12-22T13:50:33;74.25;;;39.70;;
71679;SDS011;59512;42.662;23.254;2022-12-22T13:53:01;70.18;;;37.35;;
71679;SDS011;59512;42.662;23.254;2022-12-22T13:55:30;65.33;;;36.40;;
71679;SDS011;59512;42.662;23.254;2022-12-22T13:57:59;59.38;;;30.60;;
71679;SDS011;59512;42.662;23.254;2022-12-22T14:00:29;53.40;;;28.95;;
71679;SDS011;59512;42.662;23.254;2022-12-22T14:02:55;60.63;;;33.47;;
71679;SDS011;59512;42.662;23.254;2022-12-22T14:05:20;61.50;;;34.17;;
71679;SDS011;59512;42.662;23.254;2022-12-22T14:07:56;68.65;;;36.88;;
71679;SDS011;59512;42.662;23.254;2022-12-22T14:10:35;67.63;;;36.30;;
71679;SDS011;59512;42.662;23.254;2022-12-22T14:13:06;67.35;;;36.67;;
71679;SDS011;59512;42.662;23.254;2022-12-22T14:15:38;69.03;;;39.45;;
71679;SDS011;59512;42.662;23.254;2022-12-22T14:18:03;78.10;;;42.63;;
71679;SDS011;59512;42.662;23.254;2022-12-22T14:20:35;74.73;;;40.77;;
71679;SDS011;59512;42.662;23.254;2022-12-22T14:25:41;70.80;;;40.05;;
71679;SDS011;59512;42.662;23.254;2022-12-22T14:30:41;66.95;;;35.30;;
71679;SDS011;59512;42.662;23.254;2022-12-22T14:35:44;65.20;;;37.47;;
71679;SDS011;59512;42.662;23.254;2022-12-22T14:38:15;59.10;;;34.13;;
71679;SDS011;59512;42.662;23.254;2022-12-22T14:40:47;61.45;;;34.80;;
71679;SDS011;59512;42.662;23.254;2022-12-22T14:43:21;68.93;;;36.28;;
71679;SDS011;59512;42.662;23.254;2022-12-22T14:45:49;63.50;;;35.33;;
71679;SDS011;59512;42.662;23.254;2022-12-22T14:48:23;66.82;;;37.20;;
71679;SDS011;59512;42.662;23.254;2022-12-22T14:50:52;72.63;;;40.13;;
71679;SDS011;59512;42.662;23.254;2022-12-22T14:53:25;90.22;;;46.28;;
71679;SDS011;59512;42.662;23.254;2022-12-22T14:55:53;64.78;;;34.80;;
71679;SDS011;59512;42.662;23.254;2022-12-22T14:58:20;74.20;;;40.23;;
71679;SDS011;59512;42.662;23.254;2022-12-22T15:03:43;77.73;;;44.60;;
71679;SDS011;59512;42.662;23.254;2022-12-22T15:06:20;108.15;;;53.70;;
71679;SDS011;59512;42.662;23.254;2022-12-22T15:08:46;95.00;;;48.63;;
71679;SDS011;59512;42.662;23.254;2022-12-22T15:11:15;73.63;;;41.80;;
71679;SDS011;59512;42.662;23.254;2022-12-22T15:13:42;81.95;;;44.53;;
71679;SDS011;59512;42.662;23.254;2022-12-22T15:16:27;71.28;;;40.95;;
71679;SDS011;59512;42.662;23.254;2022-12-22T15:18:53;90.05;;;44.72;;
71679;SDS011;59512;42.662;23.254;2022-12-22T15:21:18;86.20;;;42.60;;
71679;SDS011;59512;42.662;23.254;2022-12-22T15:23:44;122.80;;;55.30;;
71679;SDS011;59512;42.662;23.254;2022-12-22T15:26:10;107.45;;;51.38;;
71679;SDS011;59512;42.662;23.254;2022-12-22T15:28:35;57.13;;;30.52;;
71679;SDS011;59512;42.662;23.254;2022-12-22T15:31:01;53.73;;;29.73;;
71679;SDS011;59512;42.662;23.254;2022-12-22T15:33:28;50.45;;;29.67;;
71679;SDS011;59512;42.662;23.254;2022-12-22T15:35:54;50.20;;;28.73;;
71679;SDS011;59512;42.662;23.254;2022-12-22T15:38:21;60.15;;;32.08;;
71679;SDS011;59512;42.662;23.254;2022-12-22T15:40:47;55.27;;;29.10;;
71679;SDS011;59512;42.662;23.254;2022-12-22T15:43:13;53.58;;;31.60;;
71679;SDS011;59512;42.662;23.254;2022-12-22T15:45:39;67.00;;;41.83;;
71679;SDS011;59512;42.662;23.254;2022-12-22T15:48:05;58.17;;;33.58;;
71679;SDS011;59512;42.662;23.254;2022-12-22T15:50:35;67.90;;;36.72;;
71679;SDS011;59512;42.662;23.254;2022-12-22T15:53:02;72.13;;;37.83;;
71679;SDS011;59512;42.662;23.254;2022-12-22T15:55:28;78.63;;;40.20;;
71679;SDS011;59512;42.662;23.254;2022-12-22T15:57:55;76.25;;;46.55;;
71679;SDS011;59512;42.662;23.254;2022-12-22T16:00:21;76.75;;;43.13;;
71679;SDS011;59512;42.662;23.254;2022-12-22T16:02:47;79.32;;;44.10;;
71679;SDS011;59512;42.662;23.254;2022-12-22T16:05:13;66.17;;;36.40;;
71679;SDS011;59512;42.662;23.254;2022-12-22T16:07:39;70.35;;;36.60;;
71679;SDS011;59512;42.662;23.254;2022-12-22T16:10:06;60.17;;;31.80;;
71679;SDS011;59512;42.662;23.254;2022-12-22T16:12:40;56.92;;;29.75;;
71679;SDS011;59512;42.662;23.254;2022-12-22T16:15:08;55.37;;;31.13;;
71679;SDS011;59512;42.662;23.254;2022-12-22T16:17:37;52.60;;;26.90;;
71679;SDS011;59512;42.662;23.254;2022-12-22T16:20:03;56.85;;;30.17;;
71679;SDS011;59512;42.662;23.254;2022-12-22T16:22:31;61.67;;;35.58;;
71679;SDS011;59512;42.662;23.254;2022-12-22T16:24:58;100.70;;;48.27;;
71679;SDS011;59512;42.662;23.254;2022-12-22T16:27:26;89.63;;;48.65;;
71679;SDS011;59512;42.662;23.254;2022-12-22T16:29:51;108.47;;;65.43;;
71679;SDS011;59512;42.662;23.254;2022-12-22T16:34:49;47.80;;;29.65;;
71679;SDS011;59512;42.662;23.254;2022-12-22T16:37:14;41.30;;;24.67;;